sensor_id;sensor_type;location;lat;lon;timestamp;temperature;humidity
21612;DHT22;47005;52.292;13.452;2023-05-19T00:00:42;13.00;77.80
21612;DHT22;47005;52.292;13.452;2023-05-19T00:03:09;13.00;77.50
21612;DHT22;47005;52.292;13.452;2023-05-19T00:05:40;13.00;77.70
21612;DHT22;47005;52.292;13.452;2023-05-19T00:08:10;12.90;77.90
21612;DHT22;47005;52.292;13.452;2023-05-19T00:10:36;12.90;77.40
21612;DHT22;47005;52.292;13.452;2023-05-19T00:13:02;12.90;77.70
21612;DHT22;47005;52.292;13.452;2023-05-19T00:15:28;12.90;77.40
21612;DHT22;47005;52.292;13.452;2023-05-19T00:17:54;12.80;78.30
21612;DHT22;47005;52.292;13.452;2023-05-19T00:20:21;12.80;78.00
21612;DHT22;47005;52.292;13.452;2023-05-19T00:22:46;12.80;78.70
21612;DHT22;47005;52.292;13.452;2023-05-19T00:25:12;12.70;78.40
21612;DHT22;47005;52.292;13.452;2023-05-19T00:27:38;12.70;77.30
21612;DHT22;47005;52.292;13.452;2023-05-19T00:30:04;12.70;77.50
21612;DHT22;47005;52.292;13.452;2023-05-19T00:32:29;12.70;77.50
21612;DHT22;47005;52.292;13.452;2023-05-19T00:34:55;12.70;78.30
21612;DHT22;47005;52.292;13.452;2023-05-19T00:37:21;12.60;79.10
21612;DHT22;47005;52.292;13.452;2023-05-19T00:39:47;12.60;79.10
21612;DHT22;47005;52.292;13.452;2023-05-19T00:42:13;12.60;78.00
21612;DHT22;47005;52.292;13.452;2023-05-19T00:44:39;12.60;78.70
21612;DHT22;47005;52.292;13.452;2023-05-19T00:47:06;12.60;78.90
21612;DHT22;47005;52.292;13.452;2023-05-19T00:49:32;12.50;78.70
21612;DHT22;47005;52.292;13.452;2023-05-19T00:51:59;12.50;78.30
21612;DHT22;47005;52.292;13.452;2023-05-19T00:54:25;12.40;78.20
21612;DHT22;47005;52.292;13.452;2023-05-19T00:56:53;12.40;80.20
21612;DHT22;47005;52.292;13.452;2023-05-19T00:59:18;12.40;78.60
21612;DHT22;47005;52.292;13.452;2023-05-19T01:01:45;12.40;78.70
21612;DHT22;47005;52.292;13.452;2023-05-19T01:04:22;12.40;78.40
21612;DHT22;47005;52.292;13.452;2023-05-19T01:06:50;12.30;79.50
21612;DHT22;47005;52.292;13.452;2023-05-19T01:09:20;12.30;80.30
21612;DHT22;47005;52.292;13.452;2023-05-19T01:11:47;12.30;79.00
21612;DHT22;47005;52.292;13.452;2023-05-19T01:14:12;12.30;80.10
21612;DHT22;47005;52.292;13.452;2023-05-19T01:30:23;12.20;79.30
21612;DHT22;47005;52.292;13.452;2023-05-19T01:32:52;12.20;79.70
21612;DHT22;47005;52.292;13.452;2023-05-19T01:35:22;12.20;79.30
21612;DHT22;47005;52.292;13.452;2023-05-19T01:37:51;12.10;80.30
21612;DHT22;47005;52.292;13.452;2023-05-19T01:40:20;12.10;79.60
21612;DHT22;47005;52.292;13.452;2023-05-19T01:42:45;12.10;79.30
21612;DHT22;47005;52.292;13.452;2023-05-19T01:45:12;12.10;79.80
21612;DHT22;47005;52.292;13.452;2023-05-19T01:47:41;12.10;80.60
21612;DHT22;47005;52.292;13.452;2023-05-19T01:50:07;12.00;79.60
21612;DHT22;47005;52.292;13.452;2023-05-19T01:52:33;12.00;79.80
21612;DHT22;47005;52.292;13.452;2023-05-19T01:54:59;12.00;79.90
21612;DHT22;47005;52.292;13.452;2023-05-19T02:00:59;12.00;81.00
21612;DHT22;47005;52.292;13.452;2023-05-19T02:09:12;11.90;80.40
21612;DHT22;47005;52.292;13.452;2023-05-19T02:12:02;11.80;80.90
21612;DHT22;47005;52.292;13.452;2023-05-19T02:14:36;11.90;80.70
21612;DHT22;47005;52.292;13.452;2023-05-19T02:17:03;11.80;80.50
21612;DHT22;47005;52.292;13.452;2023-05-19T02:19:32;11.80;80.60
21612;DHT22;47005;52.292;13.452;2023-05-19T02:21:58;11.80;80.70
21612;DHT22;47005;52.292;13.452;2023-05-19T02:24:24;11.80;81.30
21612;DHT22;47005;52.292;13.452;2023-05-19T02:26:51;11.80;80.60
21612;DHT22;47005;52.292;13.452;2023-05-19T02:29:18;11.80;81.50
21612;DHT22;47005;52.292;13.452;2023-05-19T02:31:44;11.70;81.00
21612;DHT22;47005;52.292;13.452;2023-05-19T02:34:09;11.70;81.00
21612;DHT22;47005;52.292;13.452;2023-05-19T02:36:35;11.70;80.90
21612;DHT22;47005;52.292;13.452;2023-05-19T02:39:02;11.70;80.60
21612;DHT22;47005;52.292;13.452;2023-05-19T02:41:29;11.70;80.50
21612;DHT22;47005;52.292;13.452;2023-05-19T02:43:54;11.60;80.90
21612;DHT22;47005;52.292;13.452;2023-05-19T02:46:20;11.60;80.90
21612;DHT22;47005;52.292;13.452;2023-05-19T02:48:46;11.60;80.60
21612;DHT22;47005;52.292;13.452;2023-05-19T02:51:11;11.60;81.00
21612;DHT22;47005;52.292;13.452;2023-05-19T02:53:37;11.60;80.60
21612;DHT22;47005;52.292;13.452;2023-05-19T02:56:03;11.60;80.70
21612;DHT22;47005;52.292;13.452;2023-05-19T02:58:28;11.50;81.30
21612;DHT22;47005;52.292;13.452;2023-05-19T03:00:55;11.50;81.10
21612;DHT22;47005;52.292;13.452;2023-05-19T03:03:20;11.50;81.70
21612;DHT22;47005;52.292;13.452;2023-05-19T03:05:46;11.50;81.10
21612;DHT22;47005;52.292;13.452;2023-05-19T03:08:12;11.50;81.50
21612;DHT22;47005;52.292;13.452;2023-05-19T03:10:38;11.40;81.90
21612;DHT22;47005;52.292;13.452;2023-05-19T03:13:03;11.40;81.70
21612;DHT22;47005;52.292;13.452;2023-05-19T03:15:29;11.40;82.50
21612;DHT22;47005;52.292;13.452;2023-05-19T03:17:55;11.40;81.50
21612;DHT22;47005;52.292;13.452;2023-05-19T03:20:21;11.40;81.60
21612;DHT22;47005;52.292;13.452;2023-05-19T03:22:47;11.30;82.20
21612;DHT22;47005;52.292;13.452;2023-05-19T03:25:12;11.30;82.10
21612;DHT22;47005;52.292;13.452;2023-05-19T03:27:38;11.30;82.50
21612;DHT22;47005;52.292;13.452;2023-05-19T03:30:04;11.30;82.80
21612;DHT22;47005;52.292;13.452;2023-05-19T03:32:30;11.30;83.00
21612;DHT22;47005;52.292;13.452;2023-05-19T03:34:57;11.30;82.30
21612;DHT22;47005;52.292;13.452;2023-05-19T03:37:23;11.30;82.70
21612;DHT22;47005;52.292;13.452;2023-05-19T03:39:48;11.20;82.50
21612;DHT22;47005;52.292;13.452;2023-05-19T03:42:14;11.20;82.30
21612;DHT22;47005;52.292;13.452;2023-05-19T03:44:40;11.20;82.30
21612;DHT22;47005;52.292;13.452;2023-05-19T03:47:06;11.20;82.40
21612;DHT22;47005;52.292;13.452;2023-05-19T03:49:31;11.20;81.90
21612;DHT22;47005;52.292;13.452;2023-05-19T03:51:57;11.20;83.20
21612;DHT22;47005;52.292;13.452;2023-05-19T03:54:23;11.20;82.80
21612;DHT22;47005;52.292;13.452;2023-05-19T03:56:48;11.20;82.50
21612;DHT22;47005;52.292;13.452;2023-05-19T03:59:14;11.20;82.70
21612;DHT22;47005;52.292;13.452;2023-05-19T04:01:40;11.20;82.20
21612;DHT22;47005;52.292;13.452;2023-05-19T04:04:06;11.20;82.30
21612;DHT22;47005;52.292;13.452;2023-05-19T04:06:32;11.20;83.10
21612;DHT22;47005;52.292;13.452;2023-05-19T04:08:58;11.30;83.30
21612;DHT22;47005;52.292;13.452;2023-05-19T04:11:24;11.30;82.80
21612;DHT22;47005;52.292;13.452;2023-05-19T04:13:50;11.30;83.10
21612;DHT22;47005;52.292;13.452;2023-05-19T04:16:15;11.30;83.00
21612;DHT22;47005;52.292;13.452;2023-05-19T04:18:41;11.30;82.80
21612;DHT22;47005;52.292;13.452;2023-05-19T04:21:07;11.30;84.00
21612;DHT22;47005;52.292;13.452;2023-05-19T04:23:33;11.30;83.10
21612;DHT22;47005;52.292;13.452;2023-05-19T04:25:58;11.30;83.00
21612;DHT22;47005;52.292;13.452;2023-05-19T04:28:26;11.30;83.70
21612;DHT22;47005;52.292;13.452;2023-05-19T04:30:52;11.30;83.10
21612;DHT22;47005;52.292;13.452;2023-05-19T04:33:17;11.30;83.10
21612;DHT22;47005;52.292;13.452;2023-05-19T04:35:44;11.30;83.50
21612;DHT22;47005;52.292;13.452;2023-05-19T04:38:10;11.30;83.10
21612;DHT22;47005;52.292;13.452;2023-05-19T04:40:36;11.30;82.80
21612;DHT22;47005;52.292;13.452;2023-05-19T04:43:04;11.30;83.70
21612;DHT22;47005;52.292;13.452;2023-05-19T04:45:31;11.40;83.80
21612;DHT22;47005;52.292;13.452;2023-05-19T04:47:57;11.40;83.20
21612;DHT22;47005;52.292;13.452;2023-05-19T04:50:23;11.40;83.30
21612;DHT22;47005;52.292;13.452;2023-05-19T04:52:49;11.40;84.00
21612;DHT22;47005;52.292;13.452;2023-05-19T04:55:15;11.40;83.90
21612;DHT22;47005;52.292;13.452;2023-05-19T04:57:50;11.40;83.30
21612;DHT22;47005;52.292;13.452;2023-05-19T05:00:16;11.40;83.90
21612;DHT22;47005;52.292;13.452;2023-05-19T05:02:41;11.40;84.20
21612;DHT22;47005;52.292;13.452;2023-05-19T05:05:08;11.40;84.20
21612;DHT22;47005;52.292;13.452;2023-05-19T05:07:34;11.50;84.00
21612;DHT22;47005;52.292;13.452;2023-05-19T05:10:00;11.50;84.20
21612;DHT22;47005;52.292;13.452;2023-05-19T05:12:26;11.40;84.60
21612;DHT22;47005;52.292;13.452;2023-05-19T05:14:52;11.50;84.80
21612;DHT22;47005;52.292;13.452;2023-05-19T05:17:18;11.50;84.50
21612;DHT22;47005;52.292;13.452;2023-05-19T05:19:44;11.50;84.60
21612;DHT22;47005;52.292;13.452;2023-05-19T05:22:10;11.50;84.90
21612;DHT22;47005;52.292;13.452;2023-05-19T05:24:36;11.60;85.50
21612;DHT22;47005;52.292;13.452;2023-05-19T05:27:02;11.60;85.20
21612;DHT22;47005;52.292;13.452;2023-05-19T05:29:28;11.60;85.90
21612;DHT22;47005;52.292;13.452;2023-05-19T05:31:54;11.60;85.70
21612;DHT22;47005;52.292;13.452;2023-05-19T05:34:20;11.60;86.30
21612;DHT22;47005;52.292;13.452;2023-05-19T05:36:45;11.60;85.80
21612;DHT22;47005;52.292;13.452;2023-05-19T05:39:11;11.70;85.20
21612;DHT22;47005;52.292;13.452;2023-05-19T05:41:37;11.70;84.80
21612;DHT22;47005;52.292;13.452;2023-05-19T05:44:03;11.70;86.90
21612;DHT22;47005;52.292;13.452;2023-05-19T05:46:30;11.70;87.20
21612;DHT22;47005;52.292;13.452;2023-05-19T05:48:56;11.70;85.90
21612;DHT22;47005;52.292;13.452;2023-05-19T05:51:22;11.70;86.60
21612;DHT22;47005;52.292;13.452;2023-05-19T05:53:52;11.80;87.00
21612;DHT22;47005;52.292;13.452;2023-05-19T05:56:19;11.80;86.50
21612;DHT22;47005;52.292;13.452;2023-05-19T05:58:45;11.80;87.00
21612;DHT22;47005;52.292;13.452;2023-05-19T06:01:10;11.90;86.70
21612;DHT22;47005;52.292;13.452;2023-05-19T06:03:40;11.90;86.60
21612;DHT22;47005;52.292;13.452;2023-05-19T06:06:09;12.00;88.30
21612;DHT22;47005;52.292;13.452;2023-05-19T06:08:34;12.00;87.70
21612;DHT22;47005;52.292;13.452;2023-05-19T06:11:00;12.00;87.20
21612;DHT22;47005;52.292;13.452;2023-05-19T06:13:33;12.10;88.20
21612;DHT22;47005;52.292;13.452;2023-05-19T06:15:58;12.20;87.60
21612;DHT22;47005;52.292;13.452;2023-05-19T06:18:24;12.20;87.60
21612;DHT22;47005;52.292;13.452;2023-05-19T06:20:49;12.20;87.00
21612;DHT22;47005;52.292;13.452;2023-05-19T06:23:18;12.30;86.80
21612;DHT22;47005;52.292;13.452;2023-05-19T06:25:44;12.30;86.40
21612;DHT22;47005;52.292;13.452;2023-05-19T06:28:09;12.40;86.40
21612;DHT22;47005;52.292;13.452;2023-05-19T06:30:35;12.40;86.80
21612;DHT22;47005;52.292;13.452;2023-05-19T06:33:01;12.50;87.00
21612;DHT22;47005;52.292;13.452;2023-05-19T06:35:28;12.50;86.70
21612;DHT22;47005;52.292;13.452;2023-05-19T06:37:54;12.50;87.00
21612;DHT22;47005;52.292;13.452;2023-05-19T06:40:22;12.60;86.60
21612;DHT22;47005;52.292;13.452;2023-05-19T06:42:48;12.60;86.60
21612;DHT22;47005;52.292;13.452;2023-05-19T06:45:14;12.60;86.30
21612;DHT22;47005;52.292;13.452;2023-05-19T06:47:39;12.70;86.90
21612;DHT22;47005;52.292;13.452;2023-05-19T06:50:09;12.70;86.90
21612;DHT22;47005;52.292;13.452;2023-05-19T06:52:35;12.80;87.00
21612;DHT22;47005;52.292;13.452;2023-05-19T06:55:01;12.80;87.20
21612;DHT22;47005;52.292;13.452;2023-05-19T06:57:26;12.90;86.70
21612;DHT22;47005;52.292;13.452;2023-05-19T06:59:52;12.90;86.70
21612;DHT22;47005;52.292;13.452;2023-05-19T07:02:18;13.00;86.80
21612;DHT22;47005;52.292;13.452;2023-05-19T07:04:43;13.00;86.80
21612;DHT22;47005;52.292;13.452;2023-05-19T07:07:09;13.10;86.80
21612;DHT22;47005;52.292;13.452;2023-05-19T07:09:35;13.10;86.90
21612;DHT22;47005;52.292;13.452;2023-05-19T07:12:00;13.20;86.60
21612;DHT22;47005;52.292;13.452;2023-05-19T07:14:26;13.20;86.90
21612;DHT22;47005;52.292;13.452;2023-05-19T07:16:52;13.30;86.70
21612;DHT22;47005;52.292;13.452;2023-05-19T07:19:18;13.40;87.00
21612;DHT22;47005;52.292;13.452;2023-05-19T07:21:45;13.40;86.50
21612;DHT22;47005;52.292;13.452;2023-05-19T07:24:11;13.50;86.50
21612;DHT22;47005;52.292;13.452;2023-05-19T07:26:37;13.60;86.00
21612;DHT22;47005;52.292;13.452;2023-05-19T07:29:02;13.70;86.10
21612;DHT22;47005;52.292;13.452;2023-05-19T07:31:28;13.70;86.80
21612;DHT22;47005;52.292;13.452;2023-05-19T07:33:54;13.80;85.90
21612;DHT22;47005;52.292;13.452;2023-05-19T07:36:20;13.80;85.80
21612;DHT22;47005;52.292;13.452;2023-05-19T07:38:46;13.90;85.20
21612;DHT22;47005;52.292;13.452;2023-05-19T07:41:11;14.00;85.30
21612;DHT22;47005;52.292;13.452;2023-05-19T07:43:37;14.00;84.90
21612;DHT22;47005;52.292;13.452;2023-05-19T07:46:03;14.10;84.70
21612;DHT22;47005;52.292;13.452;2023-05-19T07:48:28;14.10;85.00
21612;DHT22;47005;52.292;13.452;2023-05-19T07:50:54;14.20;84.30
21612;DHT22;47005;52.292;13.452;2023-05-19T07:53:20;14.20;84.20
21612;DHT22;47005;52.292;13.452;2023-05-19T07:55:47;14.30;83.60
21612;DHT22;47005;52.292;13.452;2023-05-19T07:58:13;14.40;83.50
21612;DHT22;47005;52.292;13.452;2023-05-19T08:00:41;14.40;83.20
21612;DHT22;47005;52.292;13.452;2023-05-19T08:03:08;14.40;83.20
21612;DHT22;47005;52.292;13.452;2023-05-19T08:05:34;14.40;82.80
21612;DHT22;47005;52.292;13.452;2023-05-19T08:08:01;14.50;83.00
21612;DHT22;47005;52.292;13.452;2023-05-19T08:10:27;14.50;83.10
21612;DHT22;47005;52.292;13.452;2023-05-19T08:12:53;14.60;83.30
21612;DHT22;47005;52.292;13.452;2023-05-19T08:15:18;14.60;83.20
21612;DHT22;47005;52.292;13.452;2023-05-19T08:17:44;14.60;82.80
21612;DHT22;47005;52.292;13.452;2023-05-19T08:20:10;14.70;82.90
21612;DHT22;47005;52.292;13.452;2023-05-19T08:22:39;14.70;83.40
21612;DHT22;47005;52.292;13.452;2023-05-19T08:25:05;14.80;83.70
21612;DHT22;47005;52.292;13.452;2023-05-19T08:27:32;14.90;82.90
21612;DHT22;47005;52.292;13.452;2023-05-19T08:29:58;14.90;82.40
21612;DHT22;47005;52.292;13.452;2023-05-19T08:32:24;15.00;82.30
21612;DHT22;47005;52.292;13.452;2023-05-19T08:34:49;15.10;82.00
21612;DHT22;47005;52.292;13.452;2023-05-19T08:37:15;15.10;81.50
21612;DHT22;47005;52.292;13.452;2023-05-19T08:39:41;15.20;81.30
21612;DHT22;47005;52.292;13.452;2023-05-19T08:42:07;15.20;80.60
21612;DHT22;47005;52.292;13.452;2023-05-19T08:44:35;15.30;80.60
21612;DHT22;47005;52.292;13.452;2023-05-19T08:47:03;15.30;80.50
21612;DHT22;47005;52.292;13.452;2023-05-19T08:49:46;15.40;79.90
21612;DHT22;47005;52.292;13.452;2023-05-19T08:52:26;15.40;79.80
21612;DHT22;47005;52.292;13.452;2023-05-19T08:55:16;15.50;80.10
21612;DHT22;47005;52.292;13.452;2023-05-19T08:57:49;15.50;80.00
21612;DHT22;47005;52.292;13.452;2023-05-19T09:00:15;15.60;78.90
21612;DHT22;47005;52.292;13.452;2023-05-19T09:02:41;15.60;78.90
21612;DHT22;47005;52.292;13.452;2023-05-19T09:05:07;15.70;78.30
21612;DHT22;47005;52.292;13.452;2023-05-19T09:07:35;15.70;77.30
21612;DHT22;47005;52.292;13.452;2023-05-19T09:10:02;15.70;77.10
21612;DHT22;47005;52.292;13.452;2023-05-19T09:12:28;15.70;77.00
21612;DHT22;47005;52.292;13.452;2023-05-19T09:14:54;15.80;77.60
21612;DHT22;47005;52.292;13.452;2023-05-19T09:17:20;15.80;77.70
21612;DHT22;47005;52.292;13.452;2023-05-19T09:19:46;15.80;77.00
21612;DHT22;47005;52.292;13.452;2023-05-19T09:22:15;15.80;76.80
21612;DHT22;47005;52.292;13.452;2023-05-19T09:24:44;15.90;76.40
21612;DHT22;47005;52.292;13.452;2023-05-19T09:27:13;15.90;75.90
21612;DHT22;47005;52.292;13.452;2023-05-19T09:29:41;15.90;76.10
21612;DHT22;47005;52.292;13.452;2023-05-19T09:32:07;15.90;76.10
21612;DHT22;47005;52.292;13.452;2023-05-19T09:34:32;16.00;76.30
21612;DHT22;47005;52.292;13.452;2023-05-19T09:36:58;16.00;75.60
21612;DHT22;47005;52.292;13.452;2023-05-19T09:39:24;16.00;76.20
21612;DHT22;47005;52.292;13.452;2023-05-19T09:41:51;16.00;76.60
21612;DHT22;47005;52.292;13.452;2023-05-19T09:44:23;16.10;75.40
21612;DHT22;47005;52.292;13.452;2023-05-19T09:46:53;16.20;76.10
21612;DHT22;47005;52.292;13.452;2023-05-19T09:51:55;16.30;75.80
21612;DHT22;47005;52.292;13.452;2023-05-19T09:54:23;16.30;76.10
21612;DHT22;47005;52.292;13.452;2023-05-19T09:57:02;16.30;75.50
21612;DHT22;47005;52.292;13.452;2023-05-19T09:59:29;16.40;75.70
21612;DHT22;47005;52.292;13.452;2023-05-19T10:01:56;16.40;74.10
21612;DHT22;47005;52.292;13.452;2023-05-19T10:04:24;16.40;74.70
21612;DHT22;47005;52.292;13.452;2023-05-19T10:06:51;16.50;74.90
21612;DHT22;47005;52.292;13.452;2023-05-19T10:09:24;16.50;75.20
21612;DHT22;47005;52.292;13.452;2023-05-19T10:11:57;16.50;75.10
21612;DHT22;47005;52.292;13.452;2023-05-19T10:14:27;16.60;75.10
21612;DHT22;47005;52.292;13.452;2023-05-19T10:16:57;16.60;75.00
21612;DHT22;47005;52.292;13.452;2023-05-19T10:19:25;16.60;75.20
21612;DHT22;47005;52.292;13.452;2023-05-19T10:21:51;16.60;74.80
21612;DHT22;47005;52.292;13.452;2023-05-19T10:24:17;16.70;74.80
21612;DHT22;47005;52.292;13.452;2023-05-19T10:29:16;16.70;73.80
21612;DHT22;47005;52.292;13.452;2023-05-19T10:31:44;16.70;72.90
21612;DHT22;47005;52.292;13.452;2023-05-19T10:39:34;16.90;72.80
21612;DHT22;47005;52.292;13.452;2023-05-19T10:42:14;16.90;72.10
21612;DHT22;47005;52.292;13.452;2023-05-19T10:47:25;16.90;72.50
21612;DHT22;47005;52.292;13.452;2023-05-19T10:49:54;16.90;72.20
21612;DHT22;47005;52.292;13.452;2023-05-19T10:52:22;17.00;72.20
21612;DHT22;47005;52.292;13.452;2023-05-19T10:54:54;17.00;71.40
21612;DHT22;47005;52.292;13.452;2023-05-19T10:57:26;17.00;70.40
21612;DHT22;47005;52.292;13.452;2023-05-19T10:59:54;17.00;70.60
21612;DHT22;47005;52.292;13.452;2023-05-19T11:02:39;17.00;71.80
21612;DHT22;47005;52.292;13.452;2023-05-19T11:05:15;17.00;72.10
21612;DHT22;47005;52.292;13.452;2023-05-19T11:08:04;17.00;72.10
21612;DHT22;47005;52.292;13.452;2023-05-19T11:10:31;17.10;71.90
21612;DHT22;47005;52.292;13.452;2023-05-19T11:12:57;17.10;72.00
21612;DHT22;47005;52.292;13.452;2023-05-19T11:15:26;17.10;72.10
21612;DHT22;47005;52.292;13.452;2023-05-19T11:17:52;17.10;71.40
21612;DHT22;47005;52.292;13.452;2023-05-19T11:20:26;17.10;70.60
21612;DHT22;47005;52.292;13.452;2023-05-19T11:23:05;17.20;70.20
21612;DHT22;47005;52.292;13.452;2023-05-19T11:25:50;17.20;70.50
21612;DHT22;47005;52.292;13.452;2023-05-19T11:28:22;17.20;70.60
21612;DHT22;47005;52.292;13.452;2023-05-19T11:30:56;17.20;70.40
21612;DHT22;47005;52.292;13.452;2023-05-19T11:33:24;17.30;71.20
21612;DHT22;47005;52.292;13.452;2023-05-19T11:35:54;17.30;70.60
21612;DHT22;47005;52.292;13.452;2023-05-19T11:38:22;17.30;70.80
21612;DHT22;47005;52.292;13.452;2023-05-19T11:40:48;17.40;69.60
21612;DHT22;47005;52.292;13.452;2023-05-19T11:43:17;17.40;69.30
21612;DHT22;47005;52.292;13.452;2023-05-19T11:45:42;17.50;68.70
21612;DHT22;47005;52.292;13.452;2023-05-19T11:48:12;17.50;69.00
21612;DHT22;47005;52.292;13.452;2023-05-19T11:50:40;17.50;69.50
21612;DHT22;47005;52.292;13.452;2023-05-19T11:53:06;17.50;70.00
21612;DHT22;47005;52.292;13.452;2023-05-19T11:55:32;17.60;70.40
21612;DHT22;47005;52.292;13.452;2023-05-19T11:58:02;17.60;70.50
21612;DHT22;47005;52.292;13.452;2023-05-19T12:00:29;17.60;69.50
21612;DHT22;47005;52.292;13.452;2023-05-19T12:02:56;17.60;70.50
21612;DHT22;47005;52.292;13.452;2023-05-19T12:05:23;17.60;69.80
21612;DHT22;47005;52.292;13.452;2023-05-19T12:07:50;17.70;69.70
21612;DHT22;47005;52.292;13.452;2023-05-19T12:10:27;17.60;69.20
21612;DHT22;47005;52.292;13.452;2023-05-19T12:12:54;17.60;68.70
21612;DHT22;47005;52.292;13.452;2023-05-19T12:15:20;17.60;68.70
21612;DHT22;47005;52.292;13.452;2023-05-19T12:17:54;17.60;68.40
21612;DHT22;47005;52.292;13.452;2023-05-19T12:20:20;17.70;68.10
21612;DHT22;47005;52.292;13.452;2023-05-19T12:22:47;17.60;69.20
21612;DHT22;47005;52.292;13.452;2023-05-19T12:25:14;17.60;68.90
21612;DHT22;47005;52.292;13.452;2023-05-19T12:27:42;17.70;69.00
21612;DHT22;47005;52.292;13.452;2023-05-19T12:30:09;17.70;68.90
21612;DHT22;47005;52.292;13.452;2023-05-19T12:32:34;17.70;69.00
21612;DHT22;47005;52.292;13.452;2023-05-19T12:35:02;17.70;68.80
21612;DHT22;47005;52.292;13.452;2023-05-19T12:37:29;17.70;69.10
21612;DHT22;47005;52.292;13.452;2023-05-19T12:39:56;17.80;68.70
21612;DHT22;47005;52.292;13.452;2023-05-19T12:42:22;17.90;68.00
21612;DHT22;47005;52.292;13.452;2023-05-19T12:44:49;18.00;68.40
21612;DHT22;47005;52.292;13.452;2023-05-19T12:47:17;18.00;68.30
21612;DHT22;47005;52.292;13.452;2023-05-19T12:52:27;18.20;66.70
21612;DHT22;47005;52.292;13.452;2023-05-19T12:55:07;18.20;66.50
21612;DHT22;47005;52.292;13.452;2023-05-19T12:57:34;18.30;66.30
21612;DHT22;47005;52.292;13.452;2023-05-19T13:00:05;18.30;66.80
21612;DHT22;47005;52.292;13.452;2023-05-19T13:02:33;18.30;66.70
21612;DHT22;47005;52.292;13.452;2023-05-19T13:05:00;18.40;66.60
21612;DHT22;47005;52.292;13.452;2023-05-19T13:07:26;18.40;67.30
21612;DHT22;47005;52.292;13.452;2023-05-19T13:09:52;18.60;67.30
21612;DHT22;47005;52.292;13.452;2023-05-19T13:12:17;18.60;65.90
21612;DHT22;47005;52.292;13.452;2023-05-19T13:14:44;18.60;66.70
21612;DHT22;47005;52.292;13.452;2023-05-19T13:17:10;18.60;66.60
21612;DHT22;47005;52.292;13.452;2023-05-19T13:19:36;18.60;65.90
21612;DHT22;47005;52.292;13.452;2023-05-19T13:22:01;18.70;65.80
21612;DHT22;47005;52.292;13.452;2023-05-19T13:24:28;18.70;64.60
21612;DHT22;47005;52.292;13.452;2023-05-19T13:26:54;18.70;65.60
21612;DHT22;47005;52.292;13.452;2023-05-19T13:29:19;18.80;64.00
21612;DHT22;47005;52.292;13.452;2023-05-19T13:31:45;18.80;62.60
21612;DHT22;47005;52.292;13.452;2023-05-19T13:34:11;18.80;63.50
21612;DHT22;47005;52.292;13.452;2023-05-19T13:36:36;18.80;60.70
21612;DHT22;47005;52.292;13.452;2023-05-19T13:39:03;18.90;61.80
21612;DHT22;47005;52.292;13.452;2023-05-19T13:41:29;18.80;62.60
21612;DHT22;47005;52.292;13.452;2023-05-19T13:43:58;18.80;63.10
21612;DHT22;47005;52.292;13.452;2023-05-19T13:46:23;18.80;63.40
21612;DHT22;47005;52.292;13.452;2023-05-19T13:48:50;18.80;65.20
21612;DHT22;47005;52.292;13.452;2023-05-19T13:51:16;18.90;64.20
21612;DHT22;47005;52.292;13.452;2023-05-19T13:53:41;18.90;64.60
21612;DHT22;47005;52.292;13.452;2023-05-19T13:56:07;18.90;64.10
21612;DHT22;47005;52.292;13.452;2023-05-19T13:58:33;18.90;64.20
21612;DHT22;47005;52.292;13.452;2023-05-19T14:00:58;18.90;63.60
21612;DHT22;47005;52.292;13.452;2023-05-19T14:03:25;18.90;63.60
21612;DHT22;47005;52.292;13.452;2023-05-19T14:05:50;18.90;63.80
21612;DHT22;47005;52.292;13.452;2023-05-19T14:08:17;18.90;62.90
21612;DHT22;47005;52.292;13.452;2023-05-19T14:10:44;19.00;63.60
21612;DHT22;47005;52.292;13.452;2023-05-19T14:13:10;18.90;63.10
21612;DHT22;47005;52.292;13.452;2023-05-19T14:15:37;18.90;63.40
21612;DHT22;47005;52.292;13.452;2023-05-19T14:18:03;18.90;63.10
21612;DHT22;47005;52.292;13.452;2023-05-19T14:20:29;18.90;64.50
21612;DHT22;47005;52.292;13.452;2023-05-19T14:22:55;18.90;62.70
21612;DHT22;47005;52.292;13.452;2023-05-19T14:25:21;18.90;62.30
21612;DHT22;47005;52.292;13.452;2023-05-19T14:27:47;18.80;62.60
21612;DHT22;47005;52.292;13.452;2023-05-19T14:30:12;18.80;62.50
21612;DHT22;47005;52.292;13.452;2023-05-19T14:32:38;18.80;63.50
21612;DHT22;47005;52.292;13.452;2023-05-19T14:35:04;18.80;63.80
21612;DHT22;47005;52.292;13.452;2023-05-19T14:37:30;18.80;64.00
21612;DHT22;47005;52.292;13.452;2023-05-19T14:39:57;18.80;64.40
21612;DHT22;47005;52.292;13.452;2023-05-19T14:42:23;18.80;63.80
21612;DHT22;47005;52.292;13.452;2023-05-19T14:44:48;18.80;64.60
21612;DHT22;47005;52.292;13.452;2023-05-19T14:47:14;18.80;64.40
21612;DHT22;47005;52.292;13.452;2023-05-19T14:49:40;18.80;64.60
21612;DHT22;47005;52.292;13.452;2023-05-19T14:52:05;18.80;65.00
21612;DHT22;47005;52.292;13.452;2023-05-19T14:54:31;18.80;64.70
21612;DHT22;47005;52.292;13.452;2023-05-19T14:56:57;18.80;65.00
21612;DHT22;47005;52.292;13.452;2023-05-19T14:59:22;18.80;65.20
21612;DHT22;47005;52.292;13.452;2023-05-19T15:01:49;18.80;63.40
21612;DHT22;47005;52.292;13.452;2023-05-19T15:04:14;18.80;63.80
21612;DHT22;47005;52.292;13.452;2023-05-19T15:06:40;18.80;63.50
21612;DHT22;47005;52.292;13.452;2023-05-19T15:09:06;18.80;64.20
21612;DHT22;47005;52.292;13.452;2023-05-19T15:11:32;18.80;63.80
21612;DHT22;47005;52.292;13.452;2023-05-19T15:13:58;18.80;63.70
21612;DHT22;47005;52.292;13.452;2023-05-19T15:16:24;18.80;64.00
21612;DHT22;47005;52.292;13.452;2023-05-19T15:18:49;18.80;64.30
21612;DHT22;47005;52.292;13.452;2023-05-19T15:21:18;18.80;63.90
21612;DHT22;47005;52.292;13.452;2023-05-19T15:23:44;18.80;63.40
21612;DHT22;47005;52.292;13.452;2023-05-19T15:26:09;18.80;63.80
21612;DHT22;47005;52.292;13.452;2023-05-19T15:28:35;18.80;64.30
21612;DHT22;47005;52.292;13.452;2023-05-19T15:31:01;18.80;64.20
21612;DHT22;47005;52.292;13.452;2023-05-19T15:33:26;18.80;64.30
21612;DHT22;47005;52.292;13.452;2023-05-19T15:35:52;18.80;63.90
21612;DHT22;47005;52.292;13.452;2023-05-19T15:38:18;18.70;64.20
21612;DHT22;47005;52.292;13.452;2023-05-19T15:40:44;18.70;63.80
21612;DHT22;47005;52.292;13.452;2023-05-19T15:43:11;18.70;64.40
21612;DHT22;47005;52.292;13.452;2023-05-19T15:45:36;18.70;65.70
21612;DHT22;47005;52.292;13.452;2023-05-19T15:48:02;18.70;65.20
21612;DHT22;47005;52.292;13.452;2023-05-19T15:50:28;18.70;65.40
21612;DHT22;47005;52.292;13.452;2023-05-19T15:52:53;18.70;65.50